sensor_id;sensor_type;location;lat;lon;timestamp;P1;durP1;ratioP1;P2;durP2;ratioP2
75064;SDS011;63646;49.110;9.140;2022-10-12T00:01:00;3.30;;;1.90;;
75064;SDS011;63646;49.110;9.140;2022-10-12T00:03:26;2.40;;;1.70;;
75064;SDS011;63646;49.110;9.140;2022-10-12T00:08:34;4.18;;;2.05;;
75064;SDS011;63646;49.110;9.140;2022-10-12T00:11:01;2.92;;;1.80;;
75064;SDS011;63646;49.110;9.140;2022-10-12T00:13:27;3.67;;;1.70;;
75064;SDS011;63646;49.110;9.140;2022-10-12T00:15:53;2.70;;;1.70;;
75064;SDS011;63646;49.110;9.140;2022-10-12T00:18:18;3.05;;;1.67;;
75064;SDS011;63646;49.110;9.140;2022-10-12T00:20:44;2.58;;;1.75;;
75064;SDS011;63646;49.110;9.140;2022-10-12T00:23:09;3.30;;;1.92;;
75064;SDS011;63646;49.110;9.140;2022-10-12T00:25:39;3.20;;;1.70;;
75064;SDS011;63646;49.110;9.140;2022-10-12T00:28:05;3.75;;;1.92;;
75064;SDS011;63646;49.110;9.140;2022-10-12T00:30:32;3.65;;;1.60;;
75064;SDS011;63646;49.110;9.140;2022-10-12T00:32:58;3.25;;;1.55;;
75064;SDS011;63646;49.110;9.140;2022-10-12T00:35:23;2.33;;;1.70;;
75064;SDS011;63646;49.110;9.140;2022-10-12T00:37:52;3.30;;;1.63;;
75064;SDS011;63646;49.110;9.140;2022-10-12T00:40:18;2.83;;;1.70;;
75064;SDS011;63646;49.110;9.140;2022-10-12T00:42:44;2.42;;;1.63;;
75064;SDS011;63646;49.110;9.140;2022-10-12T00:45:09;2.70;;;1.70;;
75064;SDS011;63646;49.110;9.140;2022-10-12T00:47:36;2.97;;;1.92;;
75064;SDS011;63646;49.110;9.140;2022-10-12T00:55:29;3.28;;;1.73;;
75064;SDS011;63646;49.110;9.140;2022-10-12T00:58:00;3.92;;;2.10;;
75064;SDS011;63646;49.110;9.140;2022-10-12T01:00:28;2.88;;;1.70;;
75064;SDS011;63646;49.110;9.140;2022-10-12T01:02:54;2.22;;;1.67;;
75064;SDS011;63646;49.110;9.140;2022-10-12T01:05:21;2.38;;;1.50;;
75064;SDS011;63646;49.110;9.140;2022-10-12T01:10:13;3.00;;;1.60;;
75064;SDS011;63646;49.110;9.140;2022-10-12T01:12:39;2.50;;;1.63;;
75064;SDS011;63646;49.110;9.140;2022-10-12T01:15:06;3.00;;;1.70;;
75064;SDS011;63646;49.110;9.140;2022-10-12T01:31:19;2.92;;;1.90;;
75064;SDS011;63646;49.110;9.140;2022-10-12T01:33:56;2.80;;;1.83;;
75064;SDS011;63646;49.110;9.140;2022-10-12T01:36:30;2.58;;;1.60;;
75064;SDS011;63646;49.110;9.140;2022-10-12T01:39:14;2.15;;;1.65;;
75064;SDS011;63646;49.110;9.140;2022-10-12T01:41:47;3.13;;;1.77;;
75064;SDS011;63646;49.110;9.140;2022-10-12T01:44:19;3.97;;;1.95;;
75064;SDS011;63646;49.110;9.140;2022-10-12T01:46:45;2.30;;;1.70;;
75064;SDS011;63646;49.110;9.140;2022-10-12T01:49:11;2.95;;;1.60;;
75064;SDS011;63646;49.110;9.140;2022-10-12T01:51:50;2.42;;;1.80;;
75064;SDS011;63646;49.110;9.140;2022-10-12T01:54:29;2.75;;;1.88;;
75064;SDS011;63646;49.110;9.140;2022-10-12T01:59:45;2.28;;;1.60;;
75064;SDS011;63646;49.110;9.140;2022-10-12T02:02:54;2.13;;;1.60;;
75064;SDS011;63646;49.110;9.140;2022-10-12T02:10:46;2.20;;;1.60;;
75064;SDS011;63646;49.110;9.140;2022-10-12T02:13:20;2.92;;;1.52;;
75064;SDS011;63646;49.110;9.140;2022-10-12T02:15:49;2.45;;;1.42;;
75064;SDS011;63646;49.110;9.140;2022-10-12T02:18:17;2.28;;;1.63;;
75064;SDS011;63646;49.110;9.140;2022-10-12T02:20:45;2.30;;;1.80;;
75064;SDS011;63646;49.110;9.140;2022-10-12T02:23:15;2.17;;;1.60;;
75064;SDS011;63646;49.110;9.140;2022-10-12T02:25:42;3.15;;;1.70;;
75064;SDS011;63646;49.110;9.140;2022-10-12T02:28:10;4.68;;;1.50;;
75064;SDS011;63646;49.110;9.140;2022-10-12T02:30:43;2.17;;;1.60;;
75064;SDS011;63646;49.110;9.140;2022-10-12T02:33:19;2.70;;;1.70;;
75064;SDS011;63646;49.110;9.140;2022-10-12T02:35:51;3.20;;;1.80;;
75064;SDS011;63646;49.110;9.140;2022-10-12T02:38:27;2.50;;;1.80;;
75064;SDS011;63646;49.110;9.140;2022-10-12T02:41:04;4.15;;;1.80;;
75064;SDS011;63646;49.110;9.140;2022-10-12T02:43:53;2.40;;;1.58;;
75064;SDS011;63646;49.110;9.140;2022-10-12T02:46:24;1.95;;;1.33;;
75064;SDS011;63646;49.110;9.140;2022-10-12T02:48:50;2.63;;;1.70;;
75064;SDS011;63646;49.110;9.140;2022-10-12T02:51:19;1.70;;;1.50;;
75064;SDS011;63646;49.110;9.140;2022-10-12T02:56:11;2.37;;;1.57;;
75064;SDS011;63646;49.110;9.140;2022-10-12T02:58:38;3.78;;;1.75;;
75064;SDS011;63646;49.110;9.140;2022-10-12T03:01:08;2.40;;;1.77;;
75064;SDS011;63646;49.110;9.140;2022-10-12T03:03:34;2.22;;;1.90;;
75064;SDS011;63646;49.110;9.140;2022-10-12T03:05:59;1.98;;;1.52;;
75064;SDS011;63646;49.110;9.140;2022-10-12T03:08:24;2.37;;;1.40;;
75064;SDS011;63646;49.110;9.140;2022-10-12T03:10:50;2.35;;;1.70;;
75064;SDS011;63646;49.110;9.140;2022-10-12T03:13:15;4.40;;;1.90;;
75064;SDS011;63646;49.110;9.140;2022-10-12T03:15:41;2.45;;;1.55;;
75064;SDS011;63646;49.110;9.140;2022-10-12T03:18:06;2.57;;;1.53;;
75064;SDS011;63646;49.110;9.140;2022-10-12T03:20:31;2.78;;;1.45;;
75064;SDS011;63646;49.110;9.140;2022-10-12T03:22:57;2.07;;;1.80;;
75064;SDS011;63646;49.110;9.140;2022-10-12T03:25:22;2.50;;;1.50;;
75064;SDS011;63646;49.110;9.140;2022-10-12T03:27:47;2.45;;;1.63;;
75064;SDS011;63646;49.110;9.140;2022-10-12T03:30:13;3.83;;;1.63;;
75064;SDS011;63646;49.110;9.140;2022-10-12T03:32:39;1.92;;;1.40;;
75064;SDS011;63646;49.110;9.140;2022-10-12T03:35:04;1.60;;;1.42;;
75064;SDS011;63646;49.110;9.140;2022-10-12T03:37:30;2.22;;;1.40;;
75064;SDS011;63646;49.110;9.140;2022-10-12T03:39:56;2.47;;;1.60;;
75064;SDS011;63646;49.110;9.140;2022-10-12T03:42:21;1.77;;;1.50;;
75064;SDS011;63646;49.110;9.140;2022-10-12T03:44:47;1.40;;;1.30;;
75064;SDS011;63646;49.110;9.140;2022-10-12T03:47:12;2.20;;;1.58;;
75064;SDS011;63646;49.110;9.140;2022-10-12T03:49:38;1.98;;;1.45;;
75064;SDS011;63646;49.110;9.140;2022-10-12T03:52:03;2.23;;;1.30;;
75064;SDS011;63646;49.110;9.140;2022-10-12T03:54:28;3.80;;;1.60;;
75064;SDS011;63646;49.110;9.140;2022-10-12T03:56:54;2.33;;;1.65;;
75064;SDS011;63646;49.110;9.140;2022-10-12T03:59:20;2.70;;;1.85;;
75064;SDS011;63646;49.110;9.140;2022-10-12T04:01:45;2.57;;;1.30;;
75064;SDS011;63646;49.110;9.140;2022-10-12T04:04:10;2.45;;;1.40;;
75064;SDS011;63646;49.110;9.140;2022-10-12T04:06:36;1.70;;;1.60;;
75064;SDS011;63646;49.110;9.140;2022-10-12T04:09:01;2.33;;;1.48;;
75064;SDS011;63646;49.110;9.140;2022-10-12T04:11:27;1.80;;;1.60;;
75064;SDS011;63646;49.110;9.140;2022-10-12T04:13:56;2.60;;;1.40;;
75064;SDS011;63646;49.110;9.140;2022-10-12T04:16:21;1.87;;;1.40;;
75064;SDS011;63646;49.110;9.140;2022-10-12T04:18:47;1.55;;;1.38;;
75064;SDS011;63646;49.110;9.140;2022-10-12T04:21:13;3.77;;;1.60;;
75064;SDS011;63646;49.110;9.140;2022-10-12T04:23:40;3.15;;;1.60;;
75064;SDS011;63646;49.110;9.140;2022-10-12T04:26:06;3.35;;;1.65;;
75064;SDS011;63646;49.110;9.140;2022-10-12T04:28:31;2.88;;;1.88;;
75064;SDS011;63646;49.110;9.140;2022-10-12T04:30:57;3.50;;;1.38;;
75064;SDS011;63646;49.110;9.140;2022-10-12T04:33:22;1.40;;;1.23;;
75064;SDS011;63646;49.110;9.140;2022-10-12T04:35:48;1.85;;;1.38;;
75064;SDS011;63646;49.110;9.140;2022-10-12T04:38:13;1.47;;;1.37;;
75064;SDS011;63646;49.110;9.140;2022-10-12T04:40:38;2.50;;;1.55;;
75064;SDS011;63646;49.110;9.140;2022-10-12T04:43:04;1.80;;;1.35;;
75064;SDS011;63646;49.110;9.140;2022-10-12T04:45:29;3.42;;;1.50;;
75064;SDS011;63646;49.110;9.140;2022-10-12T04:47:57;2.35;;;1.55;;
75064;SDS011;63646;49.110;9.140;2022-10-12T04:50:22;3.03;;;1.63;;
75064;SDS011;63646;49.110;9.140;2022-10-12T04:52:48;1.73;;;1.50;;
75064;SDS011;63646;49.110;9.140;2022-10-12T04:55:13;1.83;;;1.48;;
75064;SDS011;63646;49.110;9.140;2022-10-12T04:57:39;2.15;;;1.50;;
75064;SDS011;63646;49.110;9.140;2022-10-12T05:00:05;1.52;;;1.40;;
75064;SDS011;63646;49.110;9.140;2022-10-12T05:02:31;2.33;;;1.65;;
75064;SDS011;63646;49.110;9.140;2022-10-12T05:04:56;2.50;;;1.65;;
75064;SDS011;63646;49.110;9.140;2022-10-12T05:07:22;6.00;;;1.70;;
75064;SDS011;63646;49.110;9.140;2022-10-12T05:09:47;3.15;;;1.55;;
75064;SDS011;63646;49.110;9.140;2022-10-12T05:12:13;2.97;;;2.10;;
75064;SDS011;63646;49.110;9.140;2022-10-12T05:14:38;2.88;;;1.45;;
75064;SDS011;63646;49.110;9.140;2022-10-12T05:17:04;4.13;;;1.70;;
75064;SDS011;63646;49.110;9.140;2022-10-12T05:19:29;3.43;;;1.70;;
75064;SDS011;63646;49.110;9.140;2022-10-12T05:21:54;7.90;;;2.00;;
75064;SDS011;63646;49.110;9.140;2022-10-12T05:24:20;7.32;;;1.75;;
75064;SDS011;63646;49.110;9.140;2022-10-12T05:26:45;4.22;;;1.65;;
75064;SDS011;63646;49.110;9.140;2022-10-12T05:29:11;5.20;;;1.77;;
75064;SDS011;63646;49.110;9.140;2022-10-12T05:31:36;3.83;;;1.63;;
75064;SDS011;63646;49.110;9.140;2022-10-12T05:34:01;4.65;;;2.08;;
75064;SDS011;63646;49.110;9.140;2022-10-12T05:36:27;6.40;;;1.98;;
75064;SDS011;63646;49.110;9.140;2022-10-12T05:38:52;5.90;;;2.10;;
75064;SDS011;63646;49.110;9.140;2022-10-12T05:41:17;4.00;;;1.80;;
75064;SDS011;63646;49.110;9.140;2022-10-12T05:43:43;3.55;;;1.65;;
75064;SDS011;63646;49.110;9.140;2022-10-12T05:46:08;3.43;;;1.60;;
75064;SDS011;63646;49.110;9.140;2022-10-12T05:48:33;6.50;;;2.17;;
75064;SDS011;63646;49.110;9.140;2022-10-12T05:50:59;9.10;;;2.07;;
75064;SDS011;63646;49.110;9.140;2022-10-12T05:53:24;5.03;;;1.73;;
75064;SDS011;63646;49.110;9.140;2022-10-12T05:58:19;7.07;;;2.08;;
75064;SDS011;63646;49.110;9.140;2022-10-12T06:00:45;6.18;;;1.85;;
75064;SDS011;63646;49.110;9.140;2022-10-12T06:03:10;6.15;;;2.20;;
75064;SDS011;63646;49.110;9.140;2022-10-12T06:05:36;14.27;;;2.40;;
75064;SDS011;63646;49.110;9.140;2022-10-12T06:08:01;5.50;;;1.93;;
75064;SDS011;63646;49.110;9.140;2022-10-12T06:10:26;6.28;;;2.00;;
75064;SDS011;63646;49.110;9.140;2022-10-12T06:12:52;5.97;;;2.33;;
75064;SDS011;63646;49.110;9.140;2022-10-12T06:15:17;6.28;;;2.58;;
75064;SDS011;63646;49.110;9.140;2022-10-12T06:17:43;8.90;;;1.92;;
75064;SDS011;63646;49.110;9.140;2022-10-12T06:20:08;6.17;;;2.40;;
75064;SDS011;63646;49.110;9.140;2022-10-12T06:22:34;5.22;;;2.25;;
75064;SDS011;63646;49.110;9.140;2022-10-12T06:24:59;3.85;;;1.95;;
75064;SDS011;63646;49.110;9.140;2022-10-12T06:27:25;6.43;;;2.00;;
75064;SDS011;63646;49.110;9.140;2022-10-12T06:29:50;4.20;;;2.00;;
75064;SDS011;63646;49.110;9.140;2022-10-12T06:32:16;7.78;;;2.13;;
75064;SDS011;63646;49.110;9.140;2022-10-12T06:34:41;6.83;;;2.47;;
75064;SDS011;63646;49.110;9.140;2022-10-12T06:37:06;6.73;;;2.40;;
75064;SDS011;63646;49.110;9.140;2022-10-12T06:39:32;5.80;;;2.13;;
75064;SDS011;63646;49.110;9.140;2022-10-12T06:41:57;3.67;;;1.83;;
75064;SDS011;63646;49.110;9.140;2022-10-12T06:44:22;7.22;;;2.47;;
75064;SDS011;63646;49.110;9.140;2022-10-12T06:46:48;10.47;;;2.30;;
75064;SDS011;63646;49.110;9.140;2022-10-12T06:49:14;6.47;;;2.33;;
75064;SDS011;63646;49.110;9.140;2022-10-12T06:51:41;9.48;;;2.80;;
75064;SDS011;63646;49.110;9.140;2022-10-12T06:54:06;9.63;;;2.55;;
75064;SDS011;63646;49.110;9.140;2022-10-12T06:56:31;7.13;;;3.00;;
75064;SDS011;63646;49.110;9.140;2022-10-12T06:58:57;9.50;;;2.42;;
75064;SDS011;63646;49.110;9.140;2022-10-12T07:01:23;7.78;;;2.38;;
75064;SDS011;63646;49.110;9.140;2022-10-12T07:03:48;9.52;;;2.30;;
75064;SDS011;63646;49.110;9.140;2022-10-12T07:06:13;7.43;;;2.57;;
75064;SDS011;63646;49.110;9.140;2022-10-12T07:08:39;6.43;;;2.45;;
75064;SDS011;63646;49.110;9.140;2022-10-12T07:11:06;11.18;;;2.40;;
75064;SDS011;63646;49.110;9.140;2022-10-12T07:13:34;6.78;;;2.88;;
75064;SDS011;63646;49.110;9.140;2022-10-12T07:15:59;6.68;;;2.40;;
75064;SDS011;63646;49.110;9.140;2022-10-12T07:18:25;5.50;;;2.70;;
75064;SDS011;63646;49.110;9.140;2022-10-12T07:20:50;6.90;;;2.10;;
75064;SDS011;63646;49.110;9.140;2022-10-12T07:23:16;7.32;;;2.28;;
75064;SDS011;63646;49.110;9.140;2022-10-12T07:25:51;8.98;;;2.53;;
75064;SDS011;63646;49.110;9.140;2022-10-12T07:28:17;4.88;;;2.08;;
75064;SDS011;63646;49.110;9.140;2022-10-12T07:30:43;6.22;;;2.58;;
75064;SDS011;63646;49.110;9.140;2022-10-12T07:33:09;7.93;;;2.40;;
75064;SDS011;63646;49.110;9.140;2022-10-12T07:35:34;6.43;;;2.10;;
75064;SDS011;63646;49.110;9.140;2022-10-12T07:38:00;4.73;;;2.10;;
75064;SDS011;63646;49.110;9.140;2022-10-12T07:40:26;9.52;;;2.53;;
75064;SDS011;63646;49.110;9.140;2022-10-12T07:42:52;8.07;;;2.50;;
75064;SDS011;63646;49.110;9.140;2022-10-12T07:45:17;5.53;;;2.57;;
75064;SDS011;63646;49.110;9.140;2022-10-12T07:47:42;3.78;;;2.00;;
75064;SDS011;63646;49.110;9.140;2022-10-12T07:50:08;4.47;;;2.45;;
75064;SDS011;63646;49.110;9.140;2022-10-12T07:52:34;5.10;;;2.30;;
75064;SDS011;63646;49.110;9.140;2022-10-12T07:54:59;7.78;;;2.47;;
75064;SDS011;63646;49.110;9.140;2022-10-12T07:57:25;10.40;;;2.42;;
75064;SDS011;63646;49.110;9.140;2022-10-12T07:59:50;5.85;;;2.63;;
75064;SDS011;63646;49.110;9.140;2022-10-12T08:02:16;7.32;;;2.40;;
75064;SDS011;63646;49.110;9.140;2022-10-12T08:04:41;6.83;;;2.30;;
75064;SDS011;63646;49.110;9.140;2022-10-12T08:07:06;10.20;;;2.40;;
75064;SDS011;63646;49.110;9.140;2022-10-12T08:09:32;5.05;;;2.20;;
75064;SDS011;63646;49.110;9.140;2022-10-12T08:11:59;8.55;;;3.42;;
75064;SDS011;63646;49.110;9.140;2022-10-12T08:14:25;5.70;;;2.30;;
75064;SDS011;63646;49.110;9.140;2022-10-12T08:19:17;3.53;;;1.90;;
75064;SDS011;63646;49.110;9.140;2022-10-12T08:21:42;4.80;;;2.30;;
75064;SDS011;63646;49.110;9.140;2022-10-12T08:24:08;7.47;;;2.55;;
75064;SDS011;63646;49.110;9.140;2022-10-12T08:26:35;6.07;;;2.63;;
75064;SDS011;63646;49.110;9.140;2022-10-12T08:29:01;4.90;;;2.30;;
75064;SDS011;63646;49.110;9.140;2022-10-12T08:33:53;6.03;;;2.40;;
75064;SDS011;63646;49.110;9.140;2022-10-12T08:36:18;6.18;;;3.30;;
75064;SDS011;63646;49.110;9.140;2022-10-12T08:38:48;7.43;;;2.80;;
75064;SDS011;63646;49.110;9.140;2022-10-12T08:47:12;6.65;;;3.80;;
75064;SDS011;63646;49.110;9.140;2022-10-12T08:49:54;5.82;;;3.53;;
75064;SDS011;63646;49.110;9.140;2022-10-12T08:52:25;5.55;;;3.33;;
75064;SDS011;63646;49.110;9.140;2022-10-12T08:54:58;6.13;;;3.33;;
75064;SDS011;63646;49.110;9.140;2022-10-12T08:57:29;6.50;;;3.83;;
75064;SDS011;63646;49.110;9.140;2022-10-12T08:59:54;6.63;;;3.70;;
75064;SDS011;63646;49.110;9.140;2022-10-12T09:02:32;3.80;;;3.37;;
75064;SDS011;63646;49.110;9.140;2022-10-12T09:05:07;6.57;;;3.60;;
75064;SDS011;63646;49.110;9.140;2022-10-12T09:15:56;5.47;;;3.33;;
75064;SDS011;63646;49.110;9.140;2022-10-12T09:18:32;5.82;;;3.42;;
75064;SDS011;63646;49.110;9.140;2022-10-12T09:20:59;5.68;;;3.22;;
75064;SDS011;63646;49.110;9.140;2022-10-12T09:23:29;5.50;;;3.38;;
75064;SDS011;63646;49.110;9.140;2022-10-12T09:25:59;4.95;;;3.10;;
75064;SDS011;63646;49.110;9.140;2022-10-12T09:29:13;3.53;;;2.88;;
75064;SDS011;63646;49.110;9.140;2022-10-12T09:34:07;6.18;;;3.28;;
75064;SDS011;63646;49.110;9.140;2022-10-12T09:36:34;4.65;;;3.15;;
75064;SDS011;63646;49.110;9.140;2022-10-12T09:39:03;5.03;;;3.10;;
75064;SDS011;63646;49.110;9.140;2022-10-12T09:41:55;4.53;;;3.45;;
75064;SDS011;63646;49.110;9.140;2022-10-12T09:44:31;4.15;;;3.22;;
75064;SDS011;63646;49.110;9.140;2022-10-12T09:46:58;7.75;;;3.85;;
75064;SDS011;63646;49.110;9.140;2022-10-12T09:52:07;6.05;;;3.22;;
75064;SDS011;63646;49.110;9.140;2022-10-12T09:54:34;4.80;;;3.17;;
75064;SDS011;63646;49.110;9.140;2022-10-12T09:57:03;4.07;;;3.25;;
75064;SDS011;63646;49.110;9.140;2022-10-12T09:59:31;3.55;;;3.08;;
75064;SDS011;63646;49.110;9.140;2022-10-12T10:04:31;6.00;;;3.22;;
75064;SDS011;63646;49.110;9.140;2022-10-12T10:07:10;3.75;;;3.20;;
75064;SDS011;63646;49.110;9.140;2022-10-12T10:12:50;6.22;;;3.40;;
75064;SDS011;63646;49.110;9.140;2022-10-12T10:15:25;7.35;;;3.65;;
75064;SDS011;63646;49.110;9.140;2022-10-12T10:17:54;6.90;;;3.55;;
75064;SDS011;63646;49.110;9.140;2022-10-12T10:20:42;4.45;;;3.00;;
75064;SDS011;63646;49.110;9.140;2022-10-12T10:25:55;3.17;;;2.83;;
75064;SDS011;63646;49.110;9.140;2022-10-12T10:28:24;3.95;;;3.10;;
75064;SDS011;63646;49.110;9.140;2022-10-12T10:30:57;4.40;;;3.33;;
75064;SDS011;63646;49.110;9.140;2022-10-12T10:33:29;5.05;;;2.85;;
75064;SDS011;63646;49.110;9.140;2022-10-12T10:38:25;7.65;;;3.20;;
75064;SDS011;63646;49.110;9.140;2022-10-12T10:40:52;7.05;;;3.20;;
75064;SDS011;63646;49.110;9.140;2022-10-12T10:43:24;6.03;;;3.20;;
75064;SDS011;63646;49.110;9.140;2022-10-12T10:45:55;5.18;;;3.38;;
75064;SDS011;63646;49.110;9.140;2022-10-12T10:48:25;4.97;;;3.00;;
75064;SDS011;63646;49.110;9.140;2022-10-12T10:50:58;6.82;;;3.58;;
75064;SDS011;63646;49.110;9.140;2022-10-12T10:53:31;7.13;;;4.10;;
75064;SDS011;63646;49.110;9.140;2022-10-12T11:01:36;5.80;;;3.20;;
75064;SDS011;63646;49.110;9.140;2022-10-12T11:04:08;4.50;;;3.05;;
75064;SDS011;63646;49.110;9.140;2022-10-12T11:09:14;4.85;;;2.80;;
75064;SDS011;63646;49.110;9.140;2022-10-12T11:11:44;5.75;;;3.20;;
75064;SDS011;63646;49.110;9.140;2022-10-12T11:14:20;4.40;;;2.88;;
75064;SDS011;63646;49.110;9.140;2022-10-12T11:16:52;3.55;;;2.70;;
75064;SDS011;63646;49.110;9.140;2022-10-12T11:19:29;5.32;;;3.10;;
75064;SDS011;63646;49.110;9.140;2022-10-12T11:24:46;3.65;;;2.67;;
75064;SDS011;63646;49.110;9.140;2022-10-12T11:33:03;4.70;;;2.95;;
75064;SDS011;63646;49.110;9.140;2022-10-12T11:35:36;4.32;;;3.03;;
75064;SDS011;63646;49.110;9.140;2022-10-12T11:40:46;3.88;;;2.90;;
75064;SDS011;63646;49.110;9.140;2022-10-12T11:43:20;5.72;;;2.90;;
75064;SDS011;63646;49.110;9.140;2022-10-12T11:45:49;5.38;;;2.90;;
75064;SDS011;63646;49.110;9.140;2022-10-12T11:48:23;9.48;;;3.10;;
75064;SDS011;63646;49.110;9.140;2022-10-12T11:50:52;8.80;;;3.38;;
75064;SDS011;63646;49.110;9.140;2022-10-12T11:53:22;5.38;;;3.25;;
75064;SDS011;63646;49.110;9.140;2022-10-12T11:58:35;19.10;;;6.72;;
75064;SDS011;63646;49.110;9.140;2022-10-12T12:01:11;15.50;;;5.75;;
75064;SDS011;63646;49.110;9.140;2022-10-12T12:12:36;9.10;;;3.78;;
75064;SDS011;63646;49.110;9.140;2022-10-12T12:14:59;6.97;;;3.58;;
75064;SDS011;63646;49.110;9.140;2022-10-12T12:17:27;5.50;;;3.45;;
75064;SDS011;63646;49.110;9.140;2022-10-12T12:19:55;12.30;;;5.22;;
75064;SDS011;63646;49.110;9.140;2022-10-12T12:22:25;10.18;;;4.55;;
75064;SDS011;63646;49.110;9.140;2022-10-12T12:30:04;7.80;;;3.78;;
75064;SDS011;63646;49.110;9.140;2022-10-12T12:32:55;7.00;;;3.15;;
75064;SDS011;63646;49.110;9.140;2022-10-12T12:35:34;8.25;;;3.65;;
75064;SDS011;63646;49.110;9.140;2022-10-12T12:40:39;6.28;;;3.40;;
75064;SDS011;63646;49.110;9.140;2022-10-12T12:43:33;9.30;;;2.97;;
75064;SDS011;63646;49.110;9.140;2022-10-12T12:46:05;7.32;;;3.35;;
75064;SDS011;63646;49.110;9.140;2022-10-12T12:51:16;5.97;;;3.60;;
75064;SDS011;63646;49.110;9.140;2022-10-12T12:54:02;7.65;;;3.80;;
75064;SDS011;63646;49.110;9.140;2022-10-12T13:21:00;5.68;;;2.88;;
75064;SDS011;63646;49.110;9.140;2022-10-12T13:23:30;6.22;;;3.30;;
75064;SDS011;63646;49.110;9.140;2022-10-12T13:25:56;5.70;;;3.63;;
75064;SDS011;63646;49.110;9.140;2022-10-12T13:28:27;5.32;;;3.47;;
75064;SDS011;63646;49.110;9.140;2022-10-12T13:31:03;5.22;;;3.50;;
75064;SDS011;63646;49.110;9.140;2022-10-12T13:33:37;6.50;;;2.90;;
75064;SDS011;63646;49.110;9.140;2022-10-12T13:36:16;5.63;;;3.38;;
75064;SDS011;63646;49.110;9.140;2022-10-12T13:38:45;6.57;;;3.22;;
75064;SDS011;63646;49.110;9.140;2022-10-12T13:41:11;5.15;;;3.55;;
75064;SDS011;63646;49.110;9.140;2022-10-12T13:43:44;5.70;;;3.03;;
75064;SDS011;63646;49.110;9.140;2022-10-12T13:49:12;7.53;;;2.90;;
75064;SDS011;63646;49.110;9.140;2022-10-12T13:51:40;6.82;;;3.25;;
75064;SDS011;63646;49.110;9.140;2022-10-12T13:54:22;6.05;;;3.20;;
75064;SDS011;63646;49.110;9.140;2022-10-12T13:56:52;6.25;;;3.28;;
75064;SDS011;63646;49.110;9.140;2022-10-12T13:59:25;6.25;;;3.40;;
75064;SDS011;63646;49.110;9.140;2022-10-12T14:01:57;6.50;;;3.03;;
75064;SDS011;63646;49.110;9.140;2022-10-12T14:04:31;6.32;;;2.88;;
75064;SDS011;63646;49.110;9.140;2022-10-12T14:06:59;7.18;;;3.08;;
75064;SDS011;63646;49.110;9.140;2022-10-12T14:09:32;7.70;;;3.17;;
75064;SDS011;63646;49.110;9.140;2022-10-12T14:12:05;5.32;;;3.08;;
75064;SDS011;63646;49.110;9.140;2022-10-12T14:14:33;6.22;;;3.08;;
75064;SDS011;63646;49.110;9.140;2022-10-12T14:17:00;5.68;;;2.80;;
75064;SDS011;63646;49.110;9.140;2022-10-12T14:22:03;7.53;;;3.17;;
75064;SDS011;63646;49.110;9.140;2022-10-12T14:24:29;5.50;;;2.85;;
75064;SDS011;63646;49.110;9.140;2022-10-12T14:27:00;6.30;;;3.03;;
75064;SDS011;63646;49.110;9.140;2022-10-12T14:37:42;5.30;;;3.25;;
75064;SDS011;63646;49.110;9.140;2022-10-12T14:40:23;5.50;;;3.10;;
75064;SDS011;63646;49.110;9.140;2022-10-12T14:47:50;5.95;;;2.85;;
75064;SDS011;63646;49.110;9.140;2022-10-12T14:50:17;3.83;;;2.55;;
75064;SDS011;63646;49.110;9.140;2022-10-12T14:52:48;3.50;;;2.53;;
75064;SDS011;63646;49.110;9.140;2022-10-12T14:55:20;4.95;;;2.83;;
75064;SDS011;63646;49.110;9.140;2022-10-12T14:57:51;6.53;;;2.72;;
75064;SDS011;63646;49.110;9.140;2022-10-12T15:02:45;5.18;;;2.70;;
75064;SDS011;63646;49.110;9.140;2022-10-12T15:05:12;5.07;;;2.60;;
75064;SDS011;63646;49.110;9.140;2022-10-12T15:07:39;4.95;;;2.80;;
75064;SDS011;63646;49.110;9.140;2022-10-12T15:10:05;6.07;;;3.13;;
75064;SDS011;63646;49.110;9.140;2022-10-12T15:12:31;4.65;;;3.10;;
75064;SDS011;63646;49.110;9.140;2022-10-12T15:15:10;5.00;;;2.95;;
75064;SDS011;63646;49.110;9.140;2022-10-12T15:17:58;3.53;;;2.50;;
75064;SDS011;63646;49.110;9.140;2022-10-12T15:20:24;4.70;;;2.90;;
75064;SDS011;63646;49.110;9.140;2022-10-12T15:22:50;4.72;;;2.70;;
75064;SDS011;63646;49.110;9.140;2022-10-12T15:27:49;3.55;;;2.58;;
75064;SDS011;63646;49.110;9.140;2022-10-12T15:30:15;4.37;;;2.83;;
75064;SDS011;63646;49.110;9.140;2022-10-12T15:32:41;5.80;;;2.92;;
75064;SDS011;63646;49.110;9.140;2022-10-12T15:35:22;3.53;;;2.67;;
75064;SDS011;63646;49.110;9.140;2022-10-12T15:37:50;3.15;;;2.65;;
75064;SDS011;63646;49.110;9.140;2022-10-12T15:40:16;6.82;;;2.42;;
75064;SDS011;63646;49.110;9.140;2022-10-12T15:42:43;5.18;;;3.00;;
75064;SDS011;63646;49.110;9.140;2022-10-12T15:47:54;4.65;;;2.63;;
75064;SDS011;63646;49.110;9.140;2022-10-12T15:50:24;6.75;;;2.85;;
75064;SDS011;63646;49.110;9.140;2022-10-12T15:55:25;3.47;;;2.53;;
75064;SDS011;63646;49.110;9.140;2022-10-12T15:57:52;5.53;;;2.60;;
75064;SDS011;63646;49.110;9.140;2022-10-12T16:00:19;6.97;;;3.20;;
75064;SDS011;63646;49.110;9.140;2022-10-12T16:02:47;4.25;;;2.72;;
75064;SDS011;63646;49.110;9.140;2022-10-12T16:05:17;6.28;;;2.90;;
75064;SDS011;63646;49.110;9.140;2022-10-12T16:07:54;9.38;;;3.05;;
75064;SDS011;63646;49.110;9.140;2022-10-12T16:10:21;6.35;;;2.90;;
75064;SDS011;63646;49.110;9.140;2022-10-12T16:12:49;5.10;;;3.20;;
75064;SDS011;63646;49.110;9.140;2022-10-12T16:15:18;4.80;;;2.60;;
75064;SDS011;63646;49.110;9.140;2022-10-12T16:17:53;4.25;;;2.80;;
75064;SDS011;63646;49.110;9.140;2022-10-12T16:20:19;4.15;;;2.60;;
75064;SDS011;63646;49.110;9.140;2022-10-12T16:22:45;7.63;;;3.20;;
75064;SDS011;63646;49.110;9.140;2022-10-12T16:25:12;7.32;;;2.80;;
75064;SDS011;63646;49.110;9.140;2022-10-12T16:27:39;9.13;;;2.60;;
75064;SDS011;63646;49.110;9.140;2022-10-12T16:30:06;3.40;;;2.45;;
75064;SDS011;63646;49.110;9.140;2022-10-12T16:32:32;4.63;;;3.08;;
75064;SDS011;63646;49.110;9.140;2022-10-12T16:34:57;5.05;;;2.50;;
75064;SDS011;63646;49.110;9.140;2022-10-12T16:37:23;3.07;;;2.60;;
75064;SDS011;63646;49.110;9.140;2022-10-12T16:39:48;4.68;;;2.50;;
75064;SDS011;63646;49.110;9.140;2022-10-12T16:42:16;9.07;;;2.80;;
75064;SDS011;63646;49.110;9.140;2022-10-12T16:44:42;9.30;;;2.60;;
75064;SDS011;63646;49.110;9.140;2022-10-12T16:47:07;5.50;;;2.50;;
75064;SDS011;63646;49.110;9.140;2022-10-12T16:49:33;7.10;;;2.88;;
75064;SDS011;63646;49.110;9.140;2022-10-12T16:51:58;5.80;;;2.88;;
75064;SDS011;63646;49.110;9.140;2022-10-12T16:54:23;6.80;;;2.88;;
75064;SDS011;63646;49.110;9.140;2022-10-12T16:56:49;4.93;;;2.70;;
75064;SDS011;63646;49.110;9.140;2022-10-12T16:59:15;10.68;;;2.78;;
75064;SDS011;63646;49.110;9.140;2022-10-12T17:01:41;6.07;;;2.95;;
75064;SDS011;63646;49.110;9.140;2022-10-12T17:04:06;5.72;;;2.53;;
75064;SDS011;63646;49.110;9.140;2022-10-12T17:06:35;3.65;;;2.38;;
75064;SDS011;63646;49.110;9.140;2022-10-12T17:09:00;6.75;;;2.72;;
75064;SDS011;63646;49.110;9.140;2022-10-12T17:11:26;4.35;;;2.28;;
75064;SDS011;63646;49.110;9.140;2022-10-12T17:13:51;6.53;;;2.33;;
75064;SDS011;63646;49.110;9.140;2022-10-12T17:16:19;6.25;;;2.58;;
75064;SDS011;63646;49.110;9.140;2022-10-12T17:19:04;5.93;;;3.22;;
75064;SDS011;63646;49.110;9.140;2022-10-12T17:21:30;5.25;;;2.60;;
75064;SDS011;63646;49.110;9.140;2022-10-12T17:23:56;6.35;;;2.67;;
75064;SDS011;63646;49.110;9.140;2022-10-12T17:26:22;6.38;;;2.78;;
75064;SDS011;63646;49.110;9.140;2022-10-12T17:28:48;5.60;;;2.85;;
75064;SDS011;63646;49.110;9.140;2022-10-12T17:31:13;6.13;;;2.95;;
75064;SDS011;63646;49.110;9.140;2022-10-12T17:33:39;5.73;;;2.90;;
75064;SDS011;63646;49.110;9.140;2022-10-12T17:36:05;8.30;;;2.73;;
75064;SDS011;63646;49.110;9.140;2022-10-12T17:38:32;5.50;;;2.80;;
75064;SDS011;63646;49.110;9.140;2022-10-12T17:40:58;5.55;;;2.70;;
75064;SDS011;63646;49.110;9.140;2022-10-12T17:43:23;5.40;;;2.67;;